sensor_id;sensor_type;location;lat;lon;timestamp;pressure;altitude;pressure_sealevel;temperature;humidity
7376;BME280;3728;42.266;24.944;2024-01-10T00:00:47;100879.75;;;0.78;100.00
7376;BME280;3728;42.266;24.944;2024-01-10T00:03:14;100874.75;;;0.90;100.00
7376;BME280;3728;42.266;24.944;2024-01-10T00:05:41;100877.47;;;1.14;100.00
7376;BME280;3728;42.266;24.944;2024-01-10T00:08:08;100874.34;;;0.93;99.97
7376;BME280;3728;42.266;24.944;2024-01-10T00:10:38;100876.00;;;0.74;100.00
7376;BME280;3728;42.266;24.944;2024-01-10T00:13:05;100876.00;;;1.25;98.71
7376;BME280;3728;42.266;24.944;2024-01-10T00:15:32;100880.53;;;1.36;98.00
7376;BME280;3728;42.266;24.944;2024-01-10T00:17:59;100884.59;;;1.19;98.20
7376;BME280;3728;42.266;24.944;2024-01-10T00:20:27;100886.19;;;1.20;98.16
7376;BME280;3728;42.266;24.944;2024-01-10T00:22:54;100880.66;;;1.10;99.29
7376;BME280;3728;42.266;24.944;2024-01-10T00:25:21;100887.84;;;0.88;100.00
7376;BME280;3728;42.266;24.944;2024-01-10T00:27:48;100899.69;;;1.09;100.00
7376;BME280;3728;42.266;24.944;2024-01-10T00:30:15;100897.56;;;1.50;97.27
7376;BME280;3728;42.266;24.944;2024-01-10T00:32:42;100899.50;;;1.04;97.47
7376;BME280;3728;42.266;24.944;2024-01-10T00:35:09;100906.66;;;1.02;98.57
7376;BME280;3728;42.266;24.944;2024-01-10T00:37:37;100903.22;;;1.21;99.10
7376;BME280;3728;42.266;24.944;2024-01-10T00:40:06;100906.19;;;1.31;97.71
7376;BME280;3728;42.266;24.944;2024-01-10T00:42:34;100906.44;;;1.10;98.51
7376;BME280;3728;42.266;24.944;2024-01-10T00:45:01;100907.25;;;1.04;99.95
7376;BME280;3728;42.266;24.944;2024-01-10T00:47:28;100910.31;;;1.32;97.35
7376;BME280;3728;42.266;24.944;2024-01-10T00:49:55;100913.22;;;1.04;99.01
7376;BME280;3728;42.266;24.944;2024-01-10T00:52:23;100913.50;;;1.27;98.00
7376;BME280;3728;42.266;24.944;2024-01-10T00:54:50;100909.97;;;1.22;97.78
7376;BME280;3728;42.266;24.944;2024-01-10T00:57:17;100910.59;;;1.11;98.63
7376;BME280;3728;42.266;24.944;2024-01-10T00:59:44;100913.72;;;1.26;99.17
7376;BME280;3728;42.266;24.944;2024-01-10T01:02:11;100914.94;;;1.23;97.58
7376;BME280;3728;42.266;24.944;2024-01-10T01:04:38;100913.94;;;1.18;97.84
7376;BME280;3728;42.266;24.944;2024-01-10T01:07:05;100914.81;;;0.99;100.00
7376;BME280;3728;42.266;24.944;2024-01-10T01:09:33;100909.66;;;0.99;100.00
7376;BME280;3728;42.266;24.944;2024-01-10T01:12:00;100907.28;;;0.97;100.00
7376;BME280;3728;42.266;24.944;2024-01-10T01:14:27;100920.53;;;1.58;96.84
7376;BME280;3728;42.266;24.944;2024-01-10T01:16:54;100914.19;;;1.54;96.77
7376;BME280;3728;42.266;24.944;2024-01-10T01:19:21;100914.97;;;1.61;94.58
7376;BME280;3728;42.266;24.944;2024-01-10T01:21:48;100915.25;;;1.40;95.85
7376;BME280;3728;42.266;24.944;2024-01-10T01:24:15;100913.56;;;1.21;98.15
7376;BME280;3728;42.266;24.944;2024-01-10T01:26:43;100906.22;;;1.24;99.38
7376;BME280;3728;42.266;24.944;2024-01-10T01:29:10;100905.00;;;1.27;99.03
7376;BME280;3728;42.266;24.944;2024-01-10T01:31:37;100912.38;;;1.17;98.83
7376;BME280;3728;42.266;24.944;2024-01-10T01:34:05;100913.41;;;1.03;100.00
7376;BME280;3728;42.266;24.944;2024-01-10T01:36:32;100913.25;;;0.91;100.00
7376;BME280;3728;42.266;24.944;2024-01-10T01:38:59;100906.31;;;0.92;100.00
7376;BME280;3728;42.266;24.944;2024-01-10T01:41:26;100900.91;;;1.00;100.00
7376;BME280;3728;42.266;24.944;2024-01-10T01:43:53;100901.28;;;1.10;100.00
7376;BME280;3728;42.266;24.944;2024-01-10T01:46:21;100905.59;;;1.29;100.00
7376;BME280;3728;42.266;24.944;2024-01-10T01:48:49;100900.44;;;1.29;100.00
7376;BME280;3728;42.266;24.944;2024-01-10T01:51:17;100899.56;;;1.48;99.97
7376;BME280;3728;42.266;24.944;2024-01-10T01:53:48;100899.66;;;1.22;99.31
7376;BME280;3728;42.266;24.944;2024-01-10T01:56:15;100889.19;;;1.04;100.00
7376;BME280;3728;42.266;24.944;2024-01-10T01:58:44;100892.59;;;0.98;100.00
7376;BME280;3728;42.266;24.944;2024-01-10T02:01:12;100895.16;;;1.04;100.00
7376;BME280;3728;42.266;24.944;2024-01-10T02:03:39;100885.69;;;0.92;100.00
7376;BME280;3728;42.266;24.944;2024-01-10T02:06:06;100883.66;;;1.00;100.00
7376;BME280;3728;42.266;24.944;2024-01-10T02:08:34;100879.66;;;1.49;100.00
7376;BME280;3728;42.266;24.944;2024-01-10T02:11:02;100879.38;;;1.25;99.93
7376;BME280;3728;42.266;24.944;2024-01-10T02:13:31;100872.25;;;1.21;100.00
7376;BME280;3728;42.266;24.944;2024-01-10T02:15:59;100866.00;;;1.42;100.00
7376;BME280;3728;42.266;24.944;2024-01-10T02:18:27;100866.25;;;1.33;99.93
7376;BME280;3728;42.266;24.944;2024-01-10T02:20:54;100872.66;;;1.24;100.00
7376;BME280;3728;42.266;24.944;2024-01-10T02:23:21;100870.03;;;1.31;99.48
7376;BME280;3728;42.266;24.944;2024-01-10T02:25:48;100875.81;;;1.26;100.00
7376;BME280;3728;42.266;24.944;2024-01-10T02:28:16;100869.78;;;1.39;98.47
7376;BME280;3728;42.266;24.944;2024-01-10T02:30:43;100877.31;;;1.47;96.61
7376;BME280;3728;42.266;24.944;2024-01-10T02:33:10;100886.69;;;1.35;96.53
7376;BME280;3728;42.266;24.944;2024-01-10T02:35:37;100879.59;;;1.24;96.69
7376;BME280;3728;42.266;24.944;2024-01-10T02:38:04;100874.06;;;1.20;96.13
7376;BME280;3728;42.266;24.944;2024-01-10T02:40:31;100880.47;;;1.05;95.20
7376;BME280;3728;42.266;24.944;2024-01-10T02:42:58;100885.81;;;1.10;95.37
7376;BME280;3728;42.266;24.944;2024-01-10T02:45:25;100879.81;;;1.22;94.55
7376;BME280;3728;42.266;24.944;2024-01-10T02:47:52;100877.44;;;1.21;93.34
7376;BME280;3728;42.266;24.944;2024-01-10T02:50:19;100873.16;;;1.39;93.30
7376;BME280;3728;42.266;24.944;2024-01-10T02:52:46;100876.94;;;1.37;93.37
7376;BME280;3728;42.266;24.944;2024-01-10T02:55:13;100878.53;;;1.38;93.27
7376;BME280;3728;42.266;24.944;2024-01-10T02:57:40;100876.91;;;1.50;93.36
7376;BME280;3728;42.266;24.944;2024-01-10T03:00:08;100872.53;;;1.51;92.63
7376;BME280;3728;42.266;24.944;2024-01-10T03:02:35;100874.41;;;1.68;89.84
7376;BME280;3728;42.266;24.944;2024-01-10T03:05:02;100871.78;;;1.75;84.83
7376;BME280;3728;42.266;24.944;2024-01-10T03:07:29;100868.66;;;1.66;82.94
7376;BME280;3728;42.266;24.944;2024-01-10T03:09:56;100869.97;;;1.51;80.64
7376;BME280;3728;42.266;24.944;2024-01-10T03:12:23;100871.28;;;1.22;80.15
7376;BME280;3728;42.266;24.944;2024-01-10T03:14:50;100873.91;;;1.15;80.92
7376;BME280;3728;42.266;24.944;2024-01-10T03:17:17;100878.38;;;1.33;77.86
7376;BME280;3728;42.266;24.944;2024-01-10T03:19:44;100869.91;;;1.19;76.93
7376;BME280;3728;42.266;24.944;2024-01-10T03:22:12;100865.59;;;1.00;78.51
7376;BME280;3728;42.266;24.944;2024-01-10T03:24:39;100870.34;;;1.10;77.58
7376;BME280;3728;42.266;24.944;2024-01-10T03:27:06;100874.72;;;1.03;75.57
7376;BME280;3728;42.266;24.944;2024-01-10T03:29:33;100875.53;;;1.03;76.22
7376;BME280;3728;42.266;24.944;2024-01-10T03:32:01;100880.88;;;1.02;76.41
7376;BME280;3728;42.266;24.944;2024-01-10T03:34:28;100881.13;;;0.87;78.49
7376;BME280;3728;42.266;24.944;2024-01-10T03:36:55;100878.19;;;0.71;78.87
7376;BME280;3728;42.266;24.944;2024-01-10T03:39:22;100888.31;;;0.59;79.83
7376;BME280;3728;42.266;24.944;2024-01-10T03:41:49;100885.75;;;0.52;81.57
7376;BME280;3728;42.266;24.944;2024-01-10T03:44:16;100882.56;;;0.63;80.94
7376;BME280;3728;42.266;24.944;2024-01-10T03:46:45;100875.25;;;0.60;81.30
7376;BME280;3728;42.266;24.944;2024-01-10T03:49:12;100871.66;;;0.61;81.63
7376;BME280;3728;42.266;24.944;2024-01-10T03:51:39;100872.84;;;0.72;80.63
7376;BME280;3728;42.266;24.944;2024-01-10T03:54:07;100871.03;;;0.66;80.41
7376;BME280;3728;42.266;24.944;2024-01-10T03:56:34;100871.28;;;0.51;79.99
7376;BME280;3728;42.266;24.944;2024-01-10T03:59:01;100888.34;;;0.46;79.82
7376;BME280;3728;42.266;24.944;2024-01-10T04:01:28;100890.31;;;0.44;80.91
7376;BME280;3728;42.266;24.944;2024-01-10T04:03:55;100892.91;;;0.44;81.90
7376;BME280;3728;42.266;24.944;2024-01-10T04:06:22;100895.06;;;0.40;83.81
7376;BME280;3728;42.266;24.944;2024-01-10T04:08:49;100898.25;;;0.36;83.50
7376;BME280;3728;42.266;24.944;2024-01-10T04:11:16;100893.50;;;0.26;82.92
7376;BME280;3728;42.266;24.944;2024-01-10T04:13:44;100890.72;;;0.34;82.75
7376;BME280;3728;42.266;24.944;2024-01-10T04:16:11;100895.09;;;0.27;83.86
7376;BME280;3728;42.266;24.944;2024-01-10T04:18:38;100899.06;;;0.23;84.43
7376;BME280;3728;42.266;24.944;2024-01-10T04:21:05;100892.31;;;0.22;85.15
7376;BME280;3728;42.266;24.944;2024-01-10T04:23:33;100901.84;;;0.28;86.76
7376;BME280;3728;42.266;24.944;2024-01-10T04:26:01;100903.00;;;0.19;87.08
7376;BME280;3728;42.266;24.944;2024-01-10T04:28:30;100913.13;;;0.14;87.47
7376;BME280;3728;42.266;24.944;2024-01-10T04:30:57;100911.31;;;0.08;87.91
7376;BME280;3728;42.266;24.944;2024-01-10T04:33:24;100908.53;;;0.03;88.30
7376;BME280;3728;42.266;24.944;2024-01-10T04:35:51;100917.88;;;0.04;89.42
7376;BME280;3728;42.266;24.944;2024-01-10T04:38:18;100909.75;;;0.20;88.27
7376;BME280;3728;42.266;24.944;2024-01-10T04:40:45;100917.47;;;0.14;85.29
7376;BME280;3728;42.266;24.944;2024-01-10T04:43:12;100923.41;;;0.01;83.67
7376;BME280;3728;42.266;24.944;2024-01-10T04:45:39;100926.34;;;-0.15;85.39
7376;BME280;3728;42.266;24.944;2024-01-10T04:48:06;100927.91;;;-0.27;85.95
7376;BME280;3728;42.266;24.944;2024-01-10T04:50:34;100925.09;;;-0.39;87.45
7376;BME280;3728;42.266;24.944;2024-01-10T04:53:02;100931.66;;;-0.30;88.49
7376;BME280;3728;42.266;24.944;2024-01-10T04:55:29;100934.22;;;-0.30;88.62
7376;BME280;3728;42.266;24.944;2024-01-10T04:57:56;100938.00;;;-0.26;88.08
7376;BME280;3728;42.266;24.944;2024-01-10T05:00:23;100933.44;;;-0.30;88.54
7376;BME280;3728;42.266;24.944;2024-01-10T05:02:50;100939.38;;;-0.23;89.46
7376;BME280;3728;42.266;24.944;2024-01-10T05:05:20;100944.13;;;-0.33;87.32
7376;BME280;3728;42.266;24.944;2024-01-10T05:07:51;100935.78;;;-0.35;86.95
7376;BME280;3728;42.266;24.944;2024-01-10T05:10:18;100939.00;;;-0.27;87.05
7376;BME280;3728;42.266;24.944;2024-01-10T05:12:45;100944.88;;;-0.39;87.06
7376;BME280;3728;42.266;24.944;2024-01-10T05:15:14;100938.53;;;-0.50;87.11
7376;BME280;3728;42.266;24.944;2024-01-10T05:17:41;100940.94;;;-0.35;87.89
7376;BME280;3728;42.266;24.944;2024-01-10T05:20:09;100944.84;;;-0.52;88.55
7376;BME280;3728;42.266;24.944;2024-01-10T05:22:37;100937.88;;;-0.65;87.66
7376;BME280;3728;42.266;24.944;2024-01-10T05:25:04;100936.72;;;-0.56;88.07
7376;BME280;3728;42.266;24.944;2024-01-10T05:27:32;100952.38;;;-0.51;87.49
7376;BME280;3728;42.266;24.944;2024-01-10T05:29:58;100949.19;;;-0.53;87.90
7376;BME280;3728;42.266;24.944;2024-01-10T05:32:26;100952.16;;;-0.49;88.15
7376;BME280;3728;42.266;24.944;2024-01-10T05:34:54;100944.44;;;-0.56;86.59
7376;BME280;3728;42.266;24.944;2024-01-10T05:37:22;100942.81;;;-0.63;86.60
7376;BME280;3728;42.266;24.944;2024-01-10T05:39:49;100944.25;;;-0.54;88.02
7376;BME280;3728;42.266;24.944;2024-01-10T05:42:16;100953.53;;;-0.60;88.91
7376;BME280;3728;42.266;24.944;2024-01-10T05:44:43;100953.47;;;-0.73;88.14
7376;BME280;3728;42.266;24.944;2024-01-10T05:47:10;100954.31;;;-0.59;89.38
7376;BME280;3728;42.266;24.944;2024-01-10T05:49:37;100950.97;;;-0.53;89.07
7376;BME280;3728;42.266;24.944;2024-01-10T05:52:04;100947.56;;;-0.67;88.97
7376;BME280;3728;42.266;24.944;2024-01-10T05:54:32;100936.84;;;-0.71;90.33
7376;BME280;3728;42.266;24.944;2024-01-10T05:56:58;100953.09;;;-0.63;89.81
7376;BME280;3728;42.266;24.944;2024-01-10T05:59:27;100951.06;;;-0.75;90.24
7376;BME280;3728;42.266;24.944;2024-01-10T06:01:56;100956.44;;;-0.70;90.18
7376;BME280;3728;42.266;24.944;2024-01-10T06:04:23;100958.25;;;-0.63;87.28
7376;BME280;3728;42.266;24.944;2024-01-10T06:06:50;100961.59;;;-0.70;88.11
7376;BME280;3728;42.266;24.944;2024-01-10T06:09:17;100966.69;;;-0.83;88.26
7376;BME280;3728;42.266;24.944;2024-01-10T06:11:48;100964.06;;;-0.89;90.22
7376;BME280;3728;42.266;24.944;2024-01-10T06:14:16;100969.25;;;-0.83;89.54
7376;BME280;3728;42.266;24.944;2024-01-10T06:16:43;100966.97;;;-0.64;89.01
7376;BME280;3728;42.266;24.944;2024-01-10T06:19:12;100970.34;;;-0.57;89.00
7376;BME280;3728;42.266;24.944;2024-01-10T06:21:39;100970.94;;;-0.62;88.84
7376;BME280;3728;42.266;24.944;2024-01-10T06:24:06;100980.88;;;-0.52;88.24
7376;BME280;3728;42.266;24.944;2024-01-10T06:26:34;100980.19;;;-0.68;88.41
7376;BME280;3728;42.266;24.944;2024-01-10T06:29:01;100984.94;;;-0.71;88.23
7376;BME280;3728;42.266;24.944;2024-01-10T06:31:29;100985.94;;;-0.65;88.01
7376;BME280;3728;42.266;24.944;2024-01-10T06:33:55;100988.13;;;-0.62;87.32
7376;BME280;3728;42.266;24.944;2024-01-10T06:36:23;100998.19;;;-0.68;88.55
7376;BME280;3728;42.266;24.944;2024-01-10T06:38:50;101009.66;;;-0.70;87.80
7376;BME280;3728;42.266;24.944;2024-01-10T06:41:17;101005.13;;;-0.68;89.24
7376;BME280;3728;42.266;24.944;2024-01-10T06:43:44;101014.84;;;-0.63;89.18
7376;BME280;3728;42.266;24.944;2024-01-10T06:46:11;101009.28;;;-0.67;88.39
7376;BME280;3728;42.266;24.944;2024-01-10T06:48:38;101016.97;;;-0.74;89.43
7376;BME280;3728;42.266;24.944;2024-01-10T06:51:15;101022.50;;;-0.77;89.31
7376;BME280;3728;42.266;24.944;2024-01-10T06:53:43;101031.00;;;-0.76;89.29
7376;BME280;3728;42.266;24.944;2024-01-10T06:56:10;101027.25;;;-0.74;89.56
7376;BME280;3728;42.266;24.944;2024-01-10T06:58:38;101030.84;;;-0.68;89.02
7376;BME280;3728;42.266;24.944;2024-01-10T07:01:11;101026.31;;;-0.66;89.17
7376;BME280;3728;42.266;24.944;2024-01-10T07:03:41;101038.81;;;-0.56;89.47
7376;BME280;3728;42.266;24.944;2024-01-10T07:06:08;101037.16;;;-0.71;89.08
7376;BME280;3728;42.266;24.944;2024-01-10T07:08:35;101036.69;;;-0.53;89.72
7376;BME280;3728;42.266;24.944;2024-01-10T07:11:03;101046.84;;;-0.38;88.53
7376;BME280;3728;42.266;24.944;2024-01-10T07:13:30;101046.66;;;-0.37;88.33
7376;BME280;3728;42.266;24.944;2024-01-10T07:15:58;101044.94;;;-0.23;88.13
7376;BME280;3728;42.266;24.944;2024-01-10T07:18:29;101052.75;;;-0.44;88.02
7376;BME280;3728;42.266;24.944;2024-01-10T07:20:57;101051.31;;;-0.53;89.57
7376;BME280;3728;42.266;24.944;2024-01-10T07:23:24;101049.00;;;-0.42;89.13
7376;BME280;3728;42.266;24.944;2024-01-10T07:25:51;101058.31;;;-0.41;87.85
7376;BME280;3728;42.266;24.944;2024-01-10T07:28:20;101057.78;;;-0.30;88.55
7376;BME280;3728;42.266;24.944;2024-01-10T07:30:47;101062.56;;;-0.27;86.86
7376;BME280;3728;42.266;24.944;2024-01-10T07:33:14;101061.53;;;-0.26;87.13
7376;BME280;3728;42.266;24.944;2024-01-10T07:35:42;101062.78;;;-0.15;86.63
7376;BME280;3728;42.266;24.944;2024-01-10T07:38:09;101068.31;;;-0.18;85.85
7376;BME280;3728;42.266;24.944;2024-01-10T07:40:37;101062.34;;;-0.25;84.56
7376;BME280;3728;42.266;24.944;2024-01-10T07:43:04;101068.50;;;-0.26;84.93
7376;BME280;3728;42.266;24.944;2024-01-10T07:45:31;101067.03;;;-0.35;84.69
7376;BME280;3728;42.266;24.944;2024-01-10T07:47:59;101072.97;;;-0.41;84.98
7376;BME280;3728;42.266;24.944;2024-01-10T07:50:27;101075.13;;;-0.45;84.47
7376;BME280;3728;42.266;24.944;2024-01-10T07:52:57;101068.63;;;-0.41;84.31
7376;BME280;3728;42.266;24.944;2024-01-10T07:55:24;101077.13;;;-0.40;84.89
7376;BME280;3728;42.266;24.944;2024-01-10T07:57:51;101068.50;;;-0.26;85.02
7376;BME280;3728;42.266;24.944;2024-01-10T08:00:18;101069.75;;;-0.09;84.24
7376;BME280;3728;42.266;24.944;2024-01-10T08:02:50;101073.91;;;-0.08;83.99
7376;BME280;3728;42.266;24.944;2024-01-10T08:05:17;101078.34;;;0.05;82.72
7376;BME280;3728;42.266;24.944;2024-01-10T08:07:45;101074.97;;;0.04;83.22
7376;BME280;3728;42.266;24.944;2024-01-10T08:10:13;101079.50;;;0.02;83.51
7376;BME280;3728;42.266;24.944;2024-01-10T08:12:40;101085.84;;;0.06;82.50
7376;BME280;3728;42.266;24.944;2024-01-10T08:15:09;101080.94;;;0.18;83.65
7376;BME280;3728;42.266;24.944;2024-01-10T08:17:39;101078.59;;;0.29;82.05
7376;BME280;3728;42.266;24.944;2024-01-10T08:20:11;101083.97;;;0.47;82.53
7376;BME280;3728;42.266;24.944;2024-01-10T08:22:42;101087.78;;;0.58;80.16
7376;BME280;3728;42.266;24.944;2024-01-10T08:25:10;101080.47;;;0.68;80.73
7376;BME280;3728;42.266;24.944;2024-01-10T08:27:39;101080.25;;;0.83;80.64
7376;BME280;3728;42.266;24.944;2024-01-10T08:30:11;101078.28;;;1.11;79.44
7376;BME280;3728;42.266;24.944;2024-01-10T08:32:38;101086.22;;;1.29;77.59
7376;BME280;3728;42.266;24.944;2024-01-10T08:35:06;101089.56;;;1.49;77.28
7376;BME280;3728;42.266;24.944;2024-01-10T08:37:38;101092.47;;;1.72;75.94
7376;BME280;3728;42.266;24.944;2024-01-10T08:40:11;101087.31;;;1.72;72.38
7376;BME280;3728;42.266;24.944;2024-01-10T08:42:42;101098.84;;;1.63;73.59
7376;BME280;3728;42.266;24.944;2024-01-10T08:45:09;101089.34;;;1.57;72.63
7376;BME280;3728;42.266;24.944;2024-01-10T08:47:38;101092.13;;;1.56;71.80
7376;BME280;3728;42.266;24.944;2024-01-10T08:50:05;101086.00;;;1.50;70.65
7376;BME280;3728;42.266;24.944;2024-01-10T08:52:35;101076.28;;;1.32;74.36
7376;BME280;3728;42.266;24.944;2024-01-10T08:55:06;101080.06;;;1.36;75.34
7376;BME280;3728;42.266;24.944;2024-01-10T08:57:39;101083.66;;;1.29;75.79
7376;BME280;3728;42.266;24.944;2024-01-10T09:00:09;101084.84;;;1.20;74.30
7376;BME280;3728;42.266;24.944;2024-01-10T09:02:40;101079.28;;;1.23;74.82
7376;BME280;3728;42.266;24.944;2024-01-10T09:05:08;101074.34;;;1.15;75.96
7376;BME280;3728;42.266;24.944;2024-01-10T09:07:37;101070.53;;;1.24;76.91
7376;BME280;3728;42.266;24.944;2024-01-10T09:10:05;101065.19;;;1.19;77.22
7376;BME280;3728;42.266;24.944;2024-01-10T09:12:35;101060.84;;;1.13;76.60
7376;BME280;3728;42.266;24.944;2024-01-10T09:15:02;101063.41;;;1.26;78.54
7376;BME280;3728;42.266;24.944;2024-01-10T09:17:29;101062.78;;;1.30;76.87
7376;BME280;3728;42.266;24.944;2024-01-10T09:19:59;101059.41;;;1.43;76.88
7376;BME280;3728;42.266;24.944;2024-01-10T09:22:29;101063.16;;;1.47;75.97
7376;BME280;3728;42.266;24.944;2024-01-10T09:24:57;101055.44;;;1.41;76.71
7376;BME280;3728;42.266;24.944;2024-01-10T09:27:34;101060.16;;;1.57;77.17
7376;BME280;3728;42.266;24.944;2024-01-10T09:30:02;101060.53;;;1.67;76.30
7376;BME280;3728;42.266;24.944;2024-01-10T09:32:32;101060.69;;;1.78;74.96
7376;BME280;3728;42.266;24.944;2024-01-10T09:34:59;101063.47;;;1.70;74.96
7376;BME280;3728;42.266;24.944;2024-01-10T09:37:27;101072.84;;;1.71;75.13
7376;BME280;3728;42.266;24.944;2024-01-10T09:39:54;101064.22;;;1.90;74.61
7376;BME280;3728;42.266;24.944;2024-01-10T09:42:22;101066.53;;;2.05;73.83
7376;BME280;3728;42.266;24.944;2024-01-10T09:44:52;101059.25;;;2.27;72.21
7376;BME280;3728;42.266;24.944;2024-01-10T09:47:20;101063.97;;;2.36;71.56
7376;BME280;3728;42.266;24.944;2024-01-10T09:49:47;101062.72;;;2.45;69.05
7376;BME280;3728;42.266;24.944;2024-01-10T09:52:26;101058.47;;;2.26;71.59
7376;BME280;3728;42.266;24.944;2024-01-10T09:54:56;101056.63;;;2.64;65.23
7376;BME280;3728;42.266;24.944;2024-01-10T09:57:25;101056.47;;;2.59;69.33
7376;BME280;3728;42.266;24.944;2024-01-10T09:59:53;101057.09;;;2.55;69.00
7376;BME280;3728;42.266;24.944;2024-01-10T10:02:23;101054.34;;;2.50;69.19
7376;BME280;3728;42.266;24.944;2024-01-10T10:07:26;101048.28;;;2.38;69.82
7376;BME280;3728;42.266;24.944;2024-01-10T10:09:54;101043.81;;;2.20;70.39
7376;BME280;3728;42.266;24.944;2024-01-10T10:12:41;101040.84;;;2.17;70.99
7376;BME280;3728;42.266;24.944;2024-01-10T10:15:23;101038.28;;;2.17;70.88
7376;BME280;3728;42.266;24.944;2024-01-10T10:17:50;101029.09;;;2.21;69.85
7376;BME280;3728;42.266;24.944;2024-01-10T10:23:02;101026.69;;;2.26;69.95
7376;BME280;3728;42.266;24.944;2024-01-10T10:25:31;101018.31;;;2.30;69.60
7376;BME280;3728;42.266;24.944;2024-01-10T10:28:02;101025.50;;;2.22;70.79
7376;BME280;3728;42.266;24.944;2024-01-10T10:30:32;101020.66;;;2.63;67.88
7376;BME280;3728;42.266;24.944;2024-01-10T10:33:05;101021.13;;;2.53;68.46
7376;BME280;3728;42.266;24.944;2024-01-10T10:35:35;101011.78;;;2.77;68.30
7376;BME280;3728;42.266;24.944;2024-01-10T10:38:09;101012.00;;;2.75;67.23
7376;BME280;3728;42.266;24.944;2024-01-10T10:40:37;101003.19;;;2.58;69.61
7376;BME280;3728;42.266;24.944;2024-01-10T10:43:10;101004.13;;;2.64;70.73
7376;BME280;3728;42.266;24.944;2024-01-10T10:45:44;100996.50;;;2.75;70.16
7376;BME280;3728;42.266;24.944;2024-01-10T10:48:16;100993.69;;;2.77;71.61
7376;BME280;3728;42.266;24.944;2024-01-10T10:50:54;100985.22;;;2.88;71.16
7376;BME280;3728;42.266;24.944;2024-01-10T10:53:25;100984.16;;;2.96;71.18
7376;BME280;3728;42.266;24.944;2024-01-10T10:55:57;100986.53;;;2.97;70.96
7376;BME280;3728;42.266;24.944;2024-01-10T10:58:25;100979.94;;;3.01;70.41
7376;BME280;3728;42.266;24.944;2024-01-10T11:00:53;100984.09;;;3.02;69.45
7376;BME280;3728;42.266;24.944;2024-01-10T11:03:21;100986.81;;;3.07;70.29
7376;BME280;3728;42.266;24.944;2024-01-10T11:05:51;100973.97;;;3.19;70.93
7376;BME280;3728;42.266;24.944;2024-01-10T11:08:20;100975.88;;;3.41;69.71
7376;BME280;3728;42.266;24.944;2024-01-10T11:10:50;100969.88;;;3.77;65.78
7376;BME280;3728;42.266;24.944;2024-01-10T11:22:26;100969.72;;;4.55;59.87
7376;BME280;3728;42.266;24.944;2024-01-10T11:24:56;100967.34;;;4.42;57.81
7376;BME280;3728;42.266;24.944;2024-01-10T11:27:26;100964.69;;;4.07;58.48
7376;BME280;3728;42.266;24.944;2024-01-10T11:29:54;100963.81;;;4.13;62.29
7376;BME280;3728;42.266;24.944;2024-01-10T11:32:22;100955.50;;;4.34;61.53
7376;BME280;3728;42.266;24.944;2024-01-10T11:37:20;100953.44;;;4.13;59.82
7376;BME280;3728;42.266;24.944;2024-01-10T11:39:47;100948.69;;;4.10;61.50
7376;BME280;3728;42.266;24.944;2024-01-10T11:42:23;100946.38;;;4.32;62.06
7376;BME280;3728;42.266;24.944;2024-01-10T11:44:52;100951.56;;;4.43;59.50
7376;BME280;3728;42.266;24.944;2024-01-10T11:47:19;100944.59;;;4.55;58.96
7376;BME280;3728;42.266;24.944;2024-01-10T11:49:58;100938.03;;;4.64;59.12
7376;BME280;3728;42.266;24.944;2024-01-10T11:52:32;100939.72;;;4.94;58.68
7376;BME280;3728;42.266;24.944;2024-01-10T11:55:01;100939.47;;;5.07;56.22
7376;BME280;3728;42.266;24.944;2024-01-10T11:57:29;100943.69;;;4.96;57.90
7376;BME280;3728;42.266;24.944;2024-01-10T11:59:59;100939.63;;;4.89;60.86
7376;BME280;3728;42.266;24.944;2024-01-10T12:02:30;100933.31;;;4.84;61.96
7376;BME280;3728;42.266;24.944;2024-01-10T12:04:57;100927.66;;;4.76;61.75
7376;BME280;3728;42.266;24.944;2024-01-10T12:07:26;100918.88;;;4.77;64.14
7376;BME280;3728;42.266;24.944;2024-01-10T12:09:54;100913.13;;;4.63;64.22
7376;BME280;3728;42.266;24.944;2024-01-10T12:12:23;100911.97;;;4.59;64.20
7376;BME280;3728;42.266;24.944;2024-01-10T12:14:50;100917.50;;;4.74;63.78
7376;BME280;3728;42.266;24.944;2024-01-10T12:17:18;100909.84;;;4.79;63.18
7376;BME280;3728;42.266;24.944;2024-01-10T12:19:46;100901.94;;;5.26;64.80
7376;BME280;3728;42.266;24.944;2024-01-10T12:22:18;100902.59;;;5.33;61.40
7376;BME280;3728;42.266;24.944;2024-01-10T12:24:49;100900.50;;;5.58;61.77
7376;BME280;3728;42.266;24.944;2024-01-10T12:27:18;100899.25;;;5.77;59.84
7376;BME280;3728;42.266;24.944;2024-01-10T12:29:50;100897.19;;;5.91;58.57
7376;BME280;3728;42.266;24.944;2024-01-10T12:32:21;100901.63;;;6.07;60.45
7376;BME280;3728;42.266;24.944;2024-01-10T12:35:00;100899.72;;;6.02;59.56
7376;BME280;3728;42.266;24.944;2024-01-10T12:37:28;100908.44;;;5.96;58.72
7376;BME280;3728;42.266;24.944;2024-01-10T12:39:55;100890.97;;;5.92;57.70
7376;BME280;3728;42.266;24.944;2024-01-10T12:42:24;100894.34;;;5.64;57.44
7376;BME280;3728;42.266;24.944;2024-01-10T12:44:51;100895.91;;;5.48;58.13
7376;BME280;3728;42.266;24.944;2024-01-10T12:47:19;100902.75;;;5.26;60.67
7376;BME280;3728;42.266;24.944;2024-01-10T12:49:47;100893.28;;;5.20;61.67
7376;BME280;3728;42.266;24.944;2024-01-10T12:52:14;100900.19;;;5.15;62.64
7376;BME280;3728;42.266;24.944;2024-01-10T12:54:45;100895.00;;;5.15;63.82
7376;BME280;3728;42.266;24.944;2024-01-10T12:57:12;100890.44;;;5.22;65.13
7376;BME280;3728;42.266;24.944;2024-01-10T12:59:39;100890.50;;;5.38;65.12
7376;BME280;3728;42.266;24.944;2024-01-10T13:02:06;100894.63;;;5.79;64.94
7376;BME280;3728;42.266;24.944;2024-01-10T13:04:33;100899.09;;;6.45;63.80
7376;BME280;3728;42.266;24.944;2024-01-10T13:07:00;100898.84;;;6.85;60.41
7376;BME280;3728;42.266;24.944;2024-01-10T13:09:28;100902.13;;;6.97;57.30
7376;BME280;3728;42.266;24.944;2024-01-10T13:11:55;100903.34;;;6.89;56.16
7376;BME280;3728;42.266;24.944;2024-01-10T13:14:22;100899.56;;;6.80;57.89
7376;BME280;3728;42.266;24.944;2024-01-10T13:16:49;100905.66;;;6.69;57.50
7376;BME280;3728;42.266;24.944;2024-01-10T13:19:25;100900.47;;;6.53;57.50
7376;BME280;3728;42.266;24.944;2024-01-10T13:21:53;100900.44;;;6.31;57.72
7376;BME280;3728;42.266;24.944;2024-01-10T13:24:20;100900.66;;;6.13;57.88
7376;BME280;3728;42.266;24.944;2024-01-10T13:26:47;100903.94;;;5.92;58.72
7376;BME280;3728;42.266;24.944;2024-01-10T13:29:15;100900.56;;;5.63;60.34